sensor_id;sensor_type;location;lat;lon;timestamp;P1;durP1;ratioP1;P2;durP2;ratioP2
17283;SDS011;8760;52.248;20.952;2022-09-09T00:02:10;10.83;;;5.00;;
17283;SDS011;8760;52.248;20.952;2022-09-09T00:04:45;7.40;;;4.73;;
17283;SDS011;8760;52.248;20.952;2022-09-09T00:07:19;9.03;;;4.90;;
17283;SDS011;8760;52.248;20.952;2022-09-09T00:09:52;7.83;;;5.23;;
17283;SDS011;8760;52.248;20.952;2022-09-09T00:12:27;7.57;;;5.07;;
17283;SDS011;8760;52.248;20.952;2022-09-09T00:15:02;9.87;;;5.60;;
17283;SDS011;8760;52.248;20.952;2022-09-09T00:17:36;12.63;;;5.87;;
17283;SDS011;8760;52.248;20.952;2022-09-09T00:20:10;7.17;;;5.33;;
17283;SDS011;8760;52.248;20.952;2022-09-09T00:22:42;7.97;;;5.30;;
17283;SDS011;8760;52.248;20.952;2022-09-09T00:25:14;7.23;;;5.37;;
17283;SDS011;8760;52.248;20.952;2022-09-09T00:27:48;7.63;;;5.50;;
17283;SDS011;8760;52.248;20.952;2022-09-09T00:30:16;7.67;;;5.80;;
17283;SDS011;8760;52.248;20.952;2022-09-09T00:32:49;8.20;;;5.77;;
17283;SDS011;8760;52.248;20.952;2022-09-09T00:35:22;11.00;;;5.90;;
17283;SDS011;8760;52.248;20.952;2022-09-09T00:37:51;10.10;;;6.10;;
17283;SDS011;8760;52.248;20.952;2022-09-09T00:40:22;8.33;;;5.70;;
17283;SDS011;8760;52.248;20.952;2022-09-09T00:42:54;7.97;;;6.10;;
17283;SDS011;8760;52.248;20.952;2022-09-09T00:45:51;8.90;;;5.70;;
17283;SDS011;8760;52.248;20.952;2022-09-09T00:48:31;10.67;;;6.47;;
17283;SDS011;8760;52.248;20.952;2022-09-09T00:51:05;12.73;;;6.23;;
17283;SDS011;8760;52.248;20.952;2022-09-09T00:53:54;11.70;;;6.53;;
17283;SDS011;8760;52.248;20.952;2022-09-09T00:56:40;10.07;;;6.83;;
17283;SDS011;8760;52.248;20.952;2022-09-09T00:59:14;9.77;;;6.10;;
17283;SDS011;8760;52.248;20.952;2022-09-09T01:01:49;11.03;;;6.63;;
17283;SDS011;8760;52.248;20.952;2022-09-09T01:04:19;12.43;;;6.47;;
17283;SDS011;8760;52.248;20.952;2022-09-09T01:06:55;11.57;;;7.10;;
17283;SDS011;8760;52.248;20.952;2022-09-09T01:09:36;10.17;;;6.57;;
17283;SDS011;8760;52.248;20.952;2022-09-09T01:12:14;9.10;;;6.50;;
17283;SDS011;8760;52.248;20.952;2022-09-09T01:14:42;12.00;;;7.47;;
17283;SDS011;8760;52.248;20.952;2022-09-09T01:17:15;10.70;;;6.40;;
17283;SDS011;8760;52.248;20.952;2022-09-09T01:19:49;9.90;;;6.93;;
17283;SDS011;8760;52.248;20.952;2022-09-09T01:22:26;11.77;;;7.50;;
17283;SDS011;8760;52.248;20.952;2022-09-09T01:25:13;10.90;;;6.77;;
17283;SDS011;8760;52.248;20.952;2022-09-09T01:27:49;8.30;;;6.87;;
17283;SDS011;8760;52.248;20.952;2022-09-09T01:30:19;10.77;;;7.37;;
17283;SDS011;8760;52.248;20.952;2022-09-09T01:32:48;11.33;;;6.73;;
17283;SDS011;8760;52.248;20.952;2022-09-09T01:35:19;12.60;;;7.23;;
17283;SDS011;8760;52.248;20.952;2022-09-09T01:37:56;10.43;;;6.47;;
17283;SDS011;8760;52.248;20.952;2022-09-09T01:40:23;9.40;;;6.60;;
17283;SDS011;8760;52.248;20.952;2022-09-09T01:42:52;12.67;;;7.13;;
17283;SDS011;8760;52.248;20.952;2022-09-09T01:45:19;11.60;;;7.10;;
17283;SDS011;8760;52.248;20.952;2022-09-09T01:47:47;11.67;;;7.43;;
17283;SDS011;8760;52.248;20.952;2022-09-09T01:50:15;12.47;;;7.20;;
17283;SDS011;8760;52.248;20.952;2022-09-09T01:52:42;10.60;;;6.80;;
17283;SDS011;8760;52.248;20.952;2022-09-09T01:55:11;13.50;;;7.47;;
17283;SDS011;8760;52.248;20.952;2022-09-09T01:57:39;11.57;;;7.30;;
17283;SDS011;8760;52.248;20.952;2022-09-09T02:00:13;11.97;;;7.77;;
17283;SDS011;8760;52.248;20.952;2022-09-09T02:02:43;10.63;;;7.37;;
17283;SDS011;8760;52.248;20.952;2022-09-09T02:05:18;10.77;;;6.83;;
17283;SDS011;8760;52.248;20.952;2022-09-09T02:07:55;10.40;;;7.50;;
17283;SDS011;8760;52.248;20.952;2022-09-09T02:10:30;11.30;;;7.30;;
17283;SDS011;8760;52.248;20.952;2022-09-09T02:13:02;11.70;;;7.23;;
17283;SDS011;8760;52.248;20.952;2022-09-09T02:15:35;12.00;;;7.70;;
17283;SDS011;8760;52.248;20.952;2022-09-09T02:18:07;13.10;;;8.00;;
17283;SDS011;8760;52.248;20.952;2022-09-09T02:20:36;11.53;;;7.63;;
17283;SDS011;8760;52.248;20.952;2022-09-09T02:23:04;12.47;;;7.80;;
17283;SDS011;8760;52.248;20.952;2022-09-09T02:25:33;14.60;;;8.90;;
17283;SDS011;8760;52.248;20.952;2022-09-09T02:28:02;13.17;;;7.67;;
17283;SDS011;8760;52.248;20.952;2022-09-09T02:30:32;12.97;;;8.07;;
17283;SDS011;8760;52.248;20.952;2022-09-09T02:33:03;12.13;;;8.40;;
17283;SDS011;8760;52.248;20.952;2022-09-09T02:35:32;14.30;;;8.23;;
17283;SDS011;8760;52.248;20.952;2022-09-09T02:38:02;12.63;;;8.27;;
17283;SDS011;8760;52.248;20.952;2022-09-09T02:40:32;11.97;;;7.97;;
17283;SDS011;8760;52.248;20.952;2022-09-09T02:42:59;12.03;;;8.70;;
17283;SDS011;8760;52.248;20.952;2022-09-09T02:45:27;11.97;;;8.23;;
17283;SDS011;8760;52.248;20.952;2022-09-09T02:48:03;12.40;;;8.33;;
17283;SDS011;8760;52.248;20.952;2022-09-09T02:50:37;12.17;;;8.87;;
17283;SDS011;8760;52.248;20.952;2022-09-09T02:53:11;13.07;;;8.30;;
17283;SDS011;8760;52.248;20.952;2022-09-09T02:55:45;12.57;;;8.43;;
17283;SDS011;8760;52.248;20.952;2022-09-09T02:58:15;15.07;;;8.83;;
17283;SDS011;8760;52.248;20.952;2022-09-09T03:00:44;11.57;;;7.87;;
17283;SDS011;8760;52.248;20.952;2022-09-09T03:03:13;9.83;;;7.50;;
17283;SDS011;8760;52.248;20.952;2022-09-09T03:05:41;11.37;;;8.10;;
17283;SDS011;8760;52.248;20.952;2022-09-09T03:08:08;16.37;;;9.70;;
17283;SDS011;8760;52.248;20.952;2022-09-09T03:10:35;14.10;;;9.40;;
17283;SDS011;8760;52.248;20.952;2022-09-09T03:13:03;13.40;;;8.30;;
17283;SDS011;8760;52.248;20.952;2022-09-09T03:15:30;12.53;;;9.00;;
17283;SDS011;8760;52.248;20.952;2022-09-09T03:17:57;12.60;;;9.07;;
17283;SDS011;8760;52.248;20.952;2022-09-09T03:20:26;12.00;;;8.57;;
17283;SDS011;8760;52.248;20.952;2022-09-09T03:22:54;11.27;;;7.97;;
17283;SDS011;8760;52.248;20.952;2022-09-09T03:25:22;11.83;;;7.87;;
17283;SDS011;8760;52.248;20.952;2022-09-09T03:27:49;11.87;;;8.07;;
17283;SDS011;8760;52.248;20.952;2022-09-09T03:30:18;10.17;;;8.07;;
17283;SDS011;8760;52.248;20.952;2022-09-09T03:32:45;11.50;;;7.67;;
17283;SDS011;8760;52.248;20.952;2022-09-09T03:35:11;10.17;;;7.20;;
17283;SDS011;8760;52.248;20.952;2022-09-09T03:37:39;11.93;;;8.13;;
17283;SDS011;8760;52.248;20.952;2022-09-09T03:40:07;12.37;;;8.07;;
17283;SDS011;8760;52.248;20.952;2022-09-09T03:42:34;9.50;;;7.50;;
17283;SDS011;8760;52.248;20.952;2022-09-09T03:45:02;9.53;;;7.30;;
17283;SDS011;8760;52.248;20.952;2022-09-09T03:47:30;10.13;;;7.43;;
17283;SDS011;8760;52.248;20.952;2022-09-09T03:49:56;10.03;;;7.77;;
17283;SDS011;8760;52.248;20.952;2022-09-09T03:52:23;9.13;;;7.37;;
17283;SDS011;8760;52.248;20.952;2022-09-09T03:54:52;10.60;;;7.37;;
17283;SDS011;8760;52.248;20.952;2022-09-09T03:57:21;11.97;;;6.90;;
17283;SDS011;8760;52.248;20.952;2022-09-09T03:59:48;10.50;;;6.80;;
17283;SDS011;8760;52.248;20.952;2022-09-09T04:02:15;9.33;;;6.47;;
17283;SDS011;8760;52.248;20.952;2022-09-09T04:04:42;11.53;;;6.57;;
17283;SDS011;8760;52.248;20.952;2022-09-09T04:07:08;8.27;;;6.37;;
17283;SDS011;8760;52.248;20.952;2022-09-09T04:09:36;7.67;;;6.87;;
17283;SDS011;8760;52.248;20.952;2022-09-09T04:12:05;7.43;;;6.50;;
17283;SDS011;8760;52.248;20.952;2022-09-09T04:14:32;8.30;;;6.23;;
17283;SDS011;8760;52.248;20.952;2022-09-09T04:16:58;7.53;;;6.50;;
17283;SDS011;8760;52.248;20.952;2022-09-09T04:19:25;7.67;;;6.57;;
17283;SDS011;8760;52.248;20.952;2022-09-09T04:21:52;11.37;;;6.93;;
17283;SDS011;8760;52.248;20.952;2022-09-09T04:24:19;7.43;;;6.53;;
17283;SDS011;8760;52.248;20.952;2022-09-09T04:26:46;8.53;;;6.50;;
17283;SDS011;8760;52.248;20.952;2022-09-09T04:29:14;9.67;;;6.90;;
17283;SDS011;8760;52.248;20.952;2022-09-09T04:31:41;7.43;;;6.27;;
17283;SDS011;8760;52.248;20.952;2022-09-09T04:34:08;8.13;;;6.03;;
17283;SDS011;8760;52.248;20.952;2022-09-09T04:36:35;7.43;;;6.17;;
17283;SDS011;8760;52.248;20.952;2022-09-09T04:39:02;7.10;;;5.83;;
17283;SDS011;8760;52.248;20.952;2022-09-09T04:41:29;6.83;;;6.07;;
17283;SDS011;8760;52.248;20.952;2022-09-09T04:43:56;6.87;;;5.93;;
17283;SDS011;8760;52.248;20.952;2022-09-09T04:46:25;12.77;;;10.67;;
17283;SDS011;8760;52.248;20.952;2022-09-09T04:48:52;12.50;;;10.30;;
17283;SDS011;8760;52.248;20.952;2022-09-09T04:51:19;7.63;;;6.77;;
17283;SDS011;8760;52.248;20.952;2022-09-09T04:53:46;9.03;;;6.43;;
17283;SDS011;8760;52.248;20.952;2022-09-09T04:56:15;9.40;;;5.73;;
17283;SDS011;8760;52.248;20.952;2022-09-09T04:58:42;6.57;;;5.87;;
17283;SDS011;8760;52.248;20.952;2022-09-09T05:01:11;7.30;;;5.77;;
17283;SDS011;8760;52.248;20.952;2022-09-09T05:03:41;7.50;;;6.50;;
17283;SDS011;8760;52.248;20.952;2022-09-09T05:06:11;8.63;;;6.10;;
17283;SDS011;8760;52.248;20.952;2022-09-09T05:08:39;6.43;;;5.53;;
17283;SDS011;8760;52.248;20.952;2022-09-09T05:11:12;8.43;;;5.93;;
17283;SDS011;8760;52.248;20.952;2022-09-09T05:13:41;7.03;;;6.00;;
17283;SDS011;8760;52.248;20.952;2022-09-09T05:16:08;7.90;;;5.93;;
17283;SDS011;8760;52.248;20.952;2022-09-09T05:18:36;6.23;;;5.63;;
17283;SDS011;8760;52.248;20.952;2022-09-09T05:21:04;9.27;;;6.00;;
17283;SDS011;8760;52.248;20.952;2022-09-09T05:23:31;7.87;;;5.60;;
17283;SDS011;8760;52.248;20.952;2022-09-09T05:25:59;6.77;;;5.60;;
17283;SDS011;8760;52.248;20.952;2022-09-09T05:28:26;6.30;;;5.70;;
17283;SDS011;8760;52.248;20.952;2022-09-09T05:30:57;6.23;;;5.00;;
17283;SDS011;8760;52.248;20.952;2022-09-09T05:33:25;6.33;;;5.10;;
17283;SDS011;8760;52.248;20.952;2022-09-09T05:35:56;5.60;;;4.87;;
17283;SDS011;8760;52.248;20.952;2022-09-09T05:38:25;7.90;;;5.50;;
17283;SDS011;8760;52.248;20.952;2022-09-09T05:40:52;7.27;;;5.53;;
17283;SDS011;8760;52.248;20.952;2022-09-09T05:43:19;6.60;;;5.27;;
17283;SDS011;8760;52.248;20.952;2022-09-09T05:45:46;7.23;;;6.40;;
17283;SDS011;8760;52.248;20.952;2022-09-09T05:48:13;6.90;;;6.20;;
17283;SDS011;8760;52.248;20.952;2022-09-09T05:50:41;6.43;;;5.70;;
17283;SDS011;8760;52.248;20.952;2022-09-09T05:53:07;8.00;;;6.03;;
17283;SDS011;8760;52.248;20.952;2022-09-09T05:55:36;6.20;;;5.53;;
17283;SDS011;8760;52.248;20.952;2022-09-09T05:58:03;8.50;;;5.70;;
17283;SDS011;8760;52.248;20.952;2022-09-09T06:00:30;6.47;;;5.87;;
17283;SDS011;8760;52.248;20.952;2022-09-09T06:02:57;6.67;;;5.90;;
17283;SDS011;8760;52.248;20.952;2022-09-09T06:05:25;6.50;;;5.43;;
17283;SDS011;8760;52.248;20.952;2022-09-09T06:07:53;7.27;;;5.60;;
17283;SDS011;8760;52.248;20.952;2022-09-09T06:10:20;8.10;;;5.80;;
17283;SDS011;8760;52.248;20.952;2022-09-09T06:12:51;7.53;;;6.10;;
17283;SDS011;8760;52.248;20.952;2022-09-09T06:15:19;6.13;;;5.53;;
17283;SDS011;8760;52.248;20.952;2022-09-09T06:17:46;9.97;;;6.03;;
17283;SDS011;8760;52.248;20.952;2022-09-09T06:20:14;8.13;;;5.80;;
17283;SDS011;8760;52.248;20.952;2022-09-09T06:22:41;7.73;;;6.93;;
17283;SDS011;8760;52.248;20.952;2022-09-09T06:25:08;7.53;;;6.47;;
17283;SDS011;8760;52.248;20.952;2022-09-09T06:27:35;6.40;;;5.80;;
17283;SDS011;8760;52.248;20.952;2022-09-09T06:30:04;7.13;;;6.40;;
17283;SDS011;8760;52.248;20.952;2022-09-09T06:32:32;6.43;;;5.83;;
17283;SDS011;8760;52.248;20.952;2022-09-09T06:35:01;9.90;;;6.13;;
17283;SDS011;8760;52.248;20.952;2022-09-09T06:37:28;8.43;;;7.57;;
17283;SDS011;8760;52.248;20.952;2022-09-09T06:39:55;6.70;;;5.97;;
17283;SDS011;8760;52.248;20.952;2022-09-09T06:42:22;6.80;;;6.03;;
17283;SDS011;8760;52.248;20.952;2022-09-09T06:44:49;7.83;;;6.07;;
17283;SDS011;8760;52.248;20.952;2022-09-09T06:47:17;7.73;;;6.20;;
17283;SDS011;8760;52.248;20.952;2022-09-09T06:49:43;8.60;;;6.47;;
17283;SDS011;8760;52.248;20.952;2022-09-09T06:52:10;8.00;;;6.70;;
17283;SDS011;8760;52.248;20.952;2022-09-09T06:54:37;7.27;;;6.47;;
17283;SDS011;8760;52.248;20.952;2022-09-09T06:57:03;8.33;;;6.97;;
17283;SDS011;8760;52.248;20.952;2022-09-09T06:59:32;7.27;;;6.30;;
17283;SDS011;8760;52.248;20.952;2022-09-09T07:01:58;7.10;;;6.40;;
17283;SDS011;8760;52.248;20.952;2022-09-09T07:04:27;7.20;;;6.53;;
17283;SDS011;8760;52.248;20.952;2022-09-09T07:06:54;8.90;;;7.33;;
17283;SDS011;8760;52.248;20.952;2022-09-09T07:09:21;7.93;;;6.80;;
17283;SDS011;8760;52.248;20.952;2022-09-09T07:11:49;9.23;;;6.63;;
17283;SDS011;8760;52.248;20.952;2022-09-09T07:14:17;7.97;;;7.17;;
17283;SDS011;8760;52.248;20.952;2022-09-09T07:16:45;8.10;;;6.80;;
17283;SDS011;8760;52.248;20.952;2022-09-09T07:19:12;8.13;;;6.60;;
17283;SDS011;8760;52.248;20.952;2022-09-09T07:21:41;9.67;;;7.20;;
17283;SDS011;8760;52.248;20.952;2022-09-09T07:24:09;9.07;;;7.23;;
17283;SDS011;8760;52.248;20.952;2022-09-09T07:26:36;9.40;;;7.43;;
17283;SDS011;8760;52.248;20.952;2022-09-09T07:29:04;8.93;;;7.93;;
17283;SDS011;8760;52.248;20.952;2022-09-09T07:31:32;8.87;;;7.27;;
17283;SDS011;8760;52.248;20.952;2022-09-09T07:34:01;9.47;;;7.43;;
17283;SDS011;8760;52.248;20.952;2022-09-09T07:36:29;9.67;;;7.40;;
17283;SDS011;8760;52.248;20.952;2022-09-09T07:38:59;10.23;;;8.13;;
17283;SDS011;8760;52.248;20.952;2022-09-09T07:41:28;11.00;;;9.20;;
17283;SDS011;8760;52.248;20.952;2022-09-09T07:43:57;9.70;;;8.70;;
17283;SDS011;8760;52.248;20.952;2022-09-09T07:46:25;10.30;;;8.30;;
17283;SDS011;8760;52.248;20.952;2022-09-09T07:48:53;9.90;;;7.57;;
17283;SDS011;8760;52.248;20.952;2022-09-09T07:51:22;9.37;;;8.40;;
17283;SDS011;8760;52.248;20.952;2022-09-09T07:53:52;11.97;;;8.83;;
17283;SDS011;8760;52.248;20.952;2022-09-09T07:56:21;11.80;;;8.93;;
17283;SDS011;8760;52.248;20.952;2022-09-09T07:58:48;11.60;;;8.87;;
17283;SDS011;8760;52.248;20.952;2022-09-09T08:01:17;9.13;;;7.97;;
17283;SDS011;8760;52.248;20.952;2022-09-09T08:03:46;10.10;;;9.07;;
17283;SDS011;8760;52.248;20.952;2022-09-09T08:06:18;10.43;;;8.90;;
17283;SDS011;8760;52.248;20.952;2022-09-09T08:08:49;10.97;;;8.70;;
17283;SDS011;8760;52.248;20.952;2022-09-09T08:11:16;12.37;;;9.33;;
17283;SDS011;8760;52.248;20.952;2022-09-09T08:13:45;10.37;;;8.50;;
17283;SDS011;8760;52.248;20.952;2022-09-09T08:16:13;10.30;;;8.93;;
17283;SDS011;8760;52.248;20.952;2022-09-09T08:18:41;11.43;;;8.50;;
17283;SDS011;8760;52.248;20.952;2022-09-09T08:21:10;11.23;;;9.17;;
17283;SDS011;8760;52.248;20.952;2022-09-09T08:23:38;10.07;;;8.73;;
17283;SDS011;8760;52.248;20.952;2022-09-09T08:26:06;12.97;;;9.70;;
17283;SDS011;8760;52.248;20.952;2022-09-09T08:28:35;11.13;;;9.73;;
17283;SDS011;8760;52.248;20.952;2022-09-09T08:31:07;11.20;;;9.93;;
17283;SDS011;8760;52.248;20.952;2022-09-09T08:33:36;12.97;;;9.87;;
17283;SDS011;8760;52.248;20.952;2022-09-09T08:36:05;12.73;;;10.70;;
17283;SDS011;8760;52.248;20.952;2022-09-09T08:38:33;13.20;;;10.37;;
17283;SDS011;8760;52.248;20.952;2022-09-09T08:41:04;11.30;;;10.03;;
17283;SDS011;8760;52.248;20.952;2022-09-09T08:43:43;14.63;;;11.30;;
17283;SDS011;8760;52.248;20.952;2022-09-09T08:46:15;14.27;;;10.87;;
17283;SDS011;8760;52.248;20.952;2022-09-09T08:48:50;14.77;;;11.40;;
17283;SDS011;8760;52.248;20.952;2022-09-09T08:51:23;13.83;;;11.90;;
17283;SDS011;8760;52.248;20.952;2022-09-09T08:53:52;17.27;;;13.40;;
17283;SDS011;8760;52.248;20.952;2022-09-09T08:56:21;18.83;;;12.77;;
17283;SDS011;8760;52.248;20.952;2022-09-09T08:58:52;17.27;;;12.67;;
17283;SDS011;8760;52.248;20.952;2022-09-09T09:01:31;17.27;;;12.97;;
17283;SDS011;8760;52.248;20.952;2022-09-09T09:04:22;19.47;;;12.73;;
17283;SDS011;8760;52.248;20.952;2022-09-09T09:07:10;19.40;;;14.00;;
17283;SDS011;8760;52.248;20.952;2022-09-09T09:09:46;19.30;;;13.43;;
17283;SDS011;8760;52.248;20.952;2022-09-09T09:12:24;18.03;;;13.47;;
17283;SDS011;8760;52.248;20.952;2022-09-09T09:14:54;18.37;;;13.33;;
17283;SDS011;8760;52.248;20.952;2022-09-09T09:17:25;18.00;;;12.90;;
17283;SDS011;8760;52.248;20.952;2022-09-09T09:19:56;17.93;;;12.90;;
17283;SDS011;8760;52.248;20.952;2022-09-09T09:22:26;21.17;;;14.80;;
17283;SDS011;8760;52.248;20.952;2022-09-09T09:25:02;18.23;;;12.97;;
17283;SDS011;8760;52.248;20.952;2022-09-09T09:27:39;18.10;;;14.33;;
17283;SDS011;8760;52.248;20.952;2022-09-09T09:30:14;19.23;;;14.40;;
17283;SDS011;8760;52.248;20.952;2022-09-09T09:32:48;18.60;;;13.43;;
17283;SDS011;8760;52.248;20.952;2022-09-09T09:35:19;20.87;;;14.43;;
17283;SDS011;8760;52.248;20.952;2022-09-09T09:37:46;19.57;;;13.90;;
17283;SDS011;8760;52.248;20.952;2022-09-09T09:40:15;20.37;;;13.93;;
17283;SDS011;8760;52.248;20.952;2022-09-09T09:42:50;20.13;;;14.53;;
17283;SDS011;8760;52.248;20.952;2022-09-09T09:45:23;18.93;;;14.10;;
17283;SDS011;8760;52.248;20.952;2022-09-09T09:47:58;17.80;;;13.13;;
17283;SDS011;8760;52.248;20.952;2022-09-09T09:50:27;18.27;;;14.87;;
17283;SDS011;8760;52.248;20.952;2022-09-09T09:52:54;21.77;;;14.67;;
17283;SDS011;8760;52.248;20.952;2022-09-09T09:55:22;19.80;;;13.63;;
17283;SDS011;8760;52.248;20.952;2022-09-09T09:57:50;20.93;;;14.13;;
17283;SDS011;8760;52.248;20.952;2022-09-09T10:00:19;19.73;;;14.17;;
17283;SDS011;8760;52.248;20.952;2022-09-09T10:02:47;20.13;;;16.07;;
17283;SDS011;8760;52.248;20.952;2022-09-09T10:05:16;24.60;;;14.90;;
17283;SDS011;8760;52.248;20.952;2022-09-09T10:07:45;22.23;;;15.23;;
17283;SDS011;8760;52.248;20.952;2022-09-09T10:10:13;21.93;;;15.93;;
17283;SDS011;8760;52.248;20.952;2022-09-09T10:12:48;23.67;;;16.53;;
17283;SDS011;8760;52.248;20.952;2022-09-09T10:15:30;19.10;;;15.13;;
17283;SDS011;8760;52.248;20.952;2022-09-09T10:18:08;20.57;;;15.37;;
17283;SDS011;8760;52.248;20.952;2022-09-09T10:20:51;23.77;;;15.63;;
17283;SDS011;8760;52.248;20.952;2022-09-09T10:23:28;24.13;;;16.10;;
17283;SDS011;8760;52.248;20.952;2022-09-09T10:26:10;25.43;;;16.90;;
17283;SDS011;8760;52.248;20.952;2022-09-09T10:28:52;22.23;;;16.33;;
17283;SDS011;8760;52.248;20.952;2022-09-09T10:31:31;21.30;;;15.83;;
17283;SDS011;8760;52.248;20.952;2022-09-09T10:34:06;21.00;;;16.37;;
17283;SDS011;8760;52.248;20.952;2022-09-09T10:36:43;21.93;;;15.90;;
17283;SDS011;8760;52.248;20.952;2022-09-09T10:39:16;27.93;;;17.60;;
17283;SDS011;8760;52.248;20.952;2022-09-09T10:41:55;24.47;;;16.33;;
17283;SDS011;8760;52.248;20.952;2022-09-09T10:44:32;23.83;;;16.90;;
17283;SDS011;8760;52.248;20.952;2022-09-09T10:50:29;22.80;;;17.37;;
17283;SDS011;8760;52.248;20.952;2022-09-09T10:53:21;27.97;;;18.37;;
17283;SDS011;8760;52.248;20.952;2022-09-09T10:55:56;26.57;;;18.67;;
17283;SDS011;8760;52.248;20.952;2022-09-09T10:58:29;28.57;;;18.80;;
17283;SDS011;8760;52.248;20.952;2022-09-09T11:01:00;27.70;;;18.43;;
17283;SDS011;8760;52.248;20.952;2022-09-09T11:03:35;24.87;;;17.57;;
17283;SDS011;8760;52.248;20.952;2022-09-09T11:06:05;29.13;;;19.00;;
17283;SDS011;8760;52.248;20.952;2022-09-09T11:08:38;25.20;;;19.23;;
17283;SDS011;8760;52.248;20.952;2022-09-09T11:11:08;25.70;;;19.27;;
17283;SDS011;8760;52.248;20.952;2022-09-09T11:13:40;28.80;;;19.33;;
17283;SDS011;8760;52.248;20.952;2022-09-09T11:16:15;30.90;;;20.73;;
17283;SDS011;8760;52.248;20.952;2022-09-09T11:18:48;33.67;;;20.20;;
17283;SDS011;8760;52.248;20.952;2022-09-09T11:21:17;27.97;;;20.23;;
17283;SDS011;8760;52.248;20.952;2022-09-09T11:23:53;29.40;;;20.90;;
17283;SDS011;8760;52.248;20.952;2022-09-09T11:26:27;29.80;;;21.80;;
17283;SDS011;8760;52.248;20.952;2022-09-09T11:29:02;34.03;;;22.07;;
17283;SDS011;8760;52.248;20.952;2022-09-09T11:31:43;38.50;;;21.93;;
17283;SDS011;8760;52.248;20.952;2022-09-09T11:34:21;33.03;;;21.57;;
17283;SDS011;8760;52.248;20.952;2022-09-09T11:37:03;37.13;;;21.80;;
17283;SDS011;8760;52.248;20.952;2022-09-09T11:42:33;31.33;;;21.90;;
17283;SDS011;8760;52.248;20.952;2022-09-09T11:45:08;31.63;;;21.23;;
17283;SDS011;8760;52.248;20.952;2022-09-09T11:47:37;33.50;;;22.37;;
17283;SDS011;8760;52.248;20.952;2022-09-09T11:50:09;34.70;;;22.37;;
17283;SDS011;8760;52.248;20.952;2022-09-09T11:52:39;38.67;;;23.83;;
17283;SDS011;8760;52.248;20.952;2022-09-09T11:55:10;38.00;;;22.90;;
17283;SDS011;8760;52.248;20.952;2022-09-09T11:57:38;39.10;;;23.10;;
17283;SDS011;8760;52.248;20.952;2022-09-09T12:00:06;34.10;;;23.63;;
17283;SDS011;8760;52.248;20.952;2022-09-09T12:02:48;35.93;;;22.93;;
17283;SDS011;8760;52.248;20.952;2022-09-09T12:05:15;36.13;;;22.33;;
17283;SDS011;8760;52.248;20.952;2022-09-09T12:07:46;30.93;;;22.43;;
17283;SDS011;8760;52.248;20.952;2022-09-09T12:10:22;33.83;;;22.77;;
17283;SDS011;8760;52.248;20.952;2022-09-09T12:12:51;38.47;;;23.60;;
17283;SDS011;8760;52.248;20.952;2022-09-09T12:15:21;38.03;;;24.23;;
17283;SDS011;8760;52.248;20.952;2022-09-09T12:17:54;38.20;;;23.97;;
17283;SDS011;8760;52.248;20.952;2022-09-09T12:20:23;36.37;;;24.97;;
17283;SDS011;8760;52.248;20.952;2022-09-09T12:26:03;37.37;;;23.40;;
17283;SDS011;8760;52.248;20.952;2022-09-09T12:28:43;37.70;;;23.80;;
17283;SDS011;8760;52.248;20.952;2022-09-09T12:31:17;33.80;;;22.60;;
17283;SDS011;8760;52.248;20.952;2022-09-09T12:33:50;36.00;;;23.67;;
17283;SDS011;8760;52.248;20.952;2022-09-09T12:36:18;33.73;;;23.83;;
17283;SDS011;8760;52.248;20.952;2022-09-09T12:38:48;40.10;;;24.80;;
17283;SDS011;8760;52.248;20.952;2022-09-09T12:41:22;37.30;;;24.27;;
17283;SDS011;8760;52.248;20.952;2022-09-09T12:43:50;35.80;;;25.53;;
17283;SDS011;8760;52.248;20.952;2022-09-09T12:46:21;36.47;;;25.63;;
17283;SDS011;8760;52.248;20.952;2022-09-09T12:48:54;40.13;;;25.87;;
17283;SDS011;8760;52.248;20.952;2022-09-09T12:51:23;40.03;;;24.70;;
17283;SDS011;8760;52.248;20.952;2022-09-09T12:53:53;39.27;;;25.40;;
17283;SDS011;8760;52.248;20.952;2022-09-09T12:56:22;42.00;;;26.13;;
17283;SDS011;8760;52.248;20.952;2022-09-09T12:58:51;45.73;;;25.17;;
17283;SDS011;8760;52.248;20.952;2022-09-09T13:01:20;42.47;;;27.07;;
17283;SDS011;8760;52.248;20.952;2022-09-09T13:03:48;40.30;;;26.37;;
17283;SDS011;8760;52.248;20.952;2022-09-09T13:06:18;45.30;;;27.47;;
17283;SDS011;8760;52.248;20.952;2022-09-09T13:08:48;39.67;;;26.40;;
17283;SDS011;8760;52.248;20.952;2022-09-09T13:11:16;40.90;;;28.07;;
17283;SDS011;8760;52.248;20.952;2022-09-09T13:13:51;46.57;;;27.93;;
17283;SDS011;8760;52.248;20.952;2022-09-09T13:16:20;43.60;;;27.50;;
17283;SDS011;8760;52.248;20.952;2022-09-09T13:18:49;45.60;;;27.70;;
17283;SDS011;8760;52.248;20.952;2022-09-09T13:21:16;41.20;;;26.90;;
17283;SDS011;8760;52.248;20.952;2022-09-09T13:23:48;40.90;;;26.97;;
17283;SDS011;8760;52.248;20.952;2022-09-09T13:26:20;40.30;;;26.70;;
17283;SDS011;8760;52.248;20.952;2022-09-09T13:28:52;40.53;;;27.43;;
17283;SDS011;8760;52.248;20.952;2022-09-09T13:31:20;41.27;;;26.73;;
17283;SDS011;8760;52.248;20.952;2022-09-09T13:33:48;42.33;;;26.57;;
17283;SDS011;8760;52.248;20.952;2022-09-09T13:36:15;41.67;;;27.43;;
17283;SDS011;8760;52.248;20.952;2022-09-09T13:38:52;44.53;;;27.03;;
17283;SDS011;8760;52.248;20.952;2022-09-09T13:41:21;42.97;;;27.03;;
17283;SDS011;8760;52.248;20.952;2022-09-09T13:43:49;41.33;;;27.80;;
17283;SDS011;8760;52.248;20.952;2022-09-09T13:46:25;46.87;;;28.07;;
17283;SDS011;8760;52.248;20.952;2022-09-09T13:49:00;43.83;;;27.43;;
17283;SDS011;8760;52.248;20.952;2022-09-09T13:51:30;42.73;;;26.27;;
17283;SDS011;8760;52.248;20.952;2022-09-09T13:54:02;42.80;;;25.67;;
17283;SDS011;8760;52.248;20.952;2022-09-09T13:56:29;43.70;;;27.10;;
17283;SDS011;8760;52.248;20.952;2022-09-09T13:58:58;39.10;;;25.60;;
17283;SDS011;8760;52.248;20.952;2022-09-09T14:01:25;48.03;;;27.17;;
17283;SDS011;8760;52.248;20.952;2022-09-09T14:03:52;45.03;;;26.70;;
17283;SDS011;8760;52.248;20.952;2022-09-09T14:06:19;44.83;;;25.97;;
17283;SDS011;8760;52.248;20.952;2022-09-09T14:08:47;41.63;;;27.33;;
17283;SDS011;8760;52.248;20.952;2022-09-09T14:11:15;42.80;;;27.07;;
17283;SDS011;8760;52.248;20.952;2022-09-09T14:13:43;42.77;;;27.33;;
17283;SDS011;8760;52.248;20.952;2022-09-09T14:16:11;42.60;;;25.17;;
17283;SDS011;8760;52.248;20.952;2022-09-09T14:18:38;47.83;;;27.03;;
17283;SDS011;8760;52.248;20.952;2022-09-09T14:21:05;46.10;;;25.77;;
17283;SDS011;8760;52.248;20.952;2022-09-09T14:23:33;44.17;;;25.87;;
17283;SDS011;8760;52.248;20.952;2022-09-09T14:26:00;42.50;;;25.67;;
17283;SDS011;8760;52.248;20.952;2022-09-09T14:28:27;41.73;;;24.73;;
17283;SDS011;8760;52.248;20.952;2022-09-09T14:30:54;46.60;;;27.07;;
17283;SDS011;8760;52.248;20.952;2022-09-09T14:33:22;49.03;;;25.97;;
17283;SDS011;8760;52.248;20.952;2022-09-09T14:35:54;45.77;;;26.50;;
17283;SDS011;8760;52.248;20.952;2022-09-09T14:38:22;46.83;;;25.40;;
17283;SDS011;8760;52.248;20.952;2022-09-09T14:40:48;41.90;;;23.63;;
17283;SDS011;8760;52.248;20.952;2022-09-09T14:43:15;39.17;;;22.60;;
17283;SDS011;8760;52.248;20.952;2022-09-09T14:45:42;37.43;;;23.47;;
17283;SDS011;8760;52.248;20.952;2022-09-09T14:48:09;39.87;;;22.50;;
17283;SDS011;8760;52.248;20.952;2022-09-09T14:50:37;39.00;;;22.67;;
17283;SDS011;8760;52.248;20.952;2022-09-09T14:53:05;43.87;;;23.30;;
17283;SDS011;8760;52.248;20.952;2022-09-09T14:55:32;37.55;;;22.33;;
17283;SDS011;8760;52.248;20.952;2022-09-09T14:57:58;39.23;;;22.60;;
17283;SDS011;8760;52.248;20.952;2022-09-09T15:00:25;37.17;;;23.20;;
17283;SDS011;8760;52.248;20.952;2022-09-09T15:02:52;41.90;;;23.17;;